Terminal Aerodrome Forecast
Issued by NWS

Current Version | Previous Version | Text Only | Print | Product List | Glossary Off
Versions: 1 2 3 4 5 6 7 8 9 10 11 12 13 14 15 16 17 18 19 20 21 22 23 24 25 26 27 28 29 30

000
FTUS41 KPBZ 231139
TAFHLG
TAF
KHLG 231139Z 2312/2412 13003KT 2SM -RA BR OVC005
      TEMPO 2312/2314 3/4SM -RA BR OVC003
     FM231400 15006KT 4SM -RA BR OVC008
     FM231600 17008KT 4SM -RA BR OVC015
     FM240000 25008KT P6SM VCSH OVC015
     FM240300 26006KT P6SM OVC008=

USA.gov is the U.S. government's official web portal to all federal, state and local government web resources and services.